createdAt,value
2022-10-04T00:01:13.732Z,98.21
2022-10-04T00:03:44.250Z,98.77
2022-10-04T00:06:21.797Z,98.48
2022-10-04T00:08:58.730Z,99.23
2022-10-04T00:11:32.602Z,99.41
2022-10-04T00:14:05.622Z,98.87
2022-10-04T00:16:36.268Z,98.66
2022-10-04T00:19:14.963Z,98.48
2022-10-04T00:21:56.563Z,97.80
2022-10-04T00:24:34.587Z,97.46
2022-10-04T00:27:23.630Z,97.24
2022-10-04T00:30:22.090Z,96.54
2022-10-04T00:33:03.241Z,96.34
2022-10-04T00:35:29.473Z,96.44
2022-10-04T00:38:00.294Z,96.26
2022-10-04T00:40:35.232Z,96.30
2022-10-04T00:43:16.179Z,96.27
2022-10-04T00:45:47.413Z,96.31
2022-10-04T00:48:45.141Z,96.73
2022-10-04T00:51:31.304Z,98.19
2022-10-04T00:54:08.843Z,99.46
2022-10-04T00:56:41.995Z,98.29
2022-10-04T00:59:11.226Z,98.40
2022-10-04T01:01:38.161Z,97.24
2022-10-04T01:04:13.806Z,97.60
2022-10-04T01:06:41.910Z,97.41
2022-10-04T01:09:12.106Z,96.90
2022-10-04T01:11:44.866Z,96.94
2022-10-04T01:14:21.008Z,96.88
2022-10-04T01:16:47.666Z,96.82
2022-10-04T01:19:26.270Z,96.30
2022-10-04T01:22:07.573Z,96.30
2022-10-04T01:24:36.571Z,96.42
2022-10-04T01:27:03.833Z,96.49
2022-10-04T01:29:31.598Z,97.16
2022-10-04T01:32:01.723Z,97.13
2022-10-04T01:34:30.389Z,96.65
2022-10-04T01:36:59.190Z,96.54
2022-10-04T01:39:28.060Z,96.30
2022-10-04T01:42:05.049Z,95.82
2022-10-04T01:44:31.303Z,95.86
2022-10-04T01:47:02.969Z,95.34
2022-10-04T01:49:33.128Z,95.57
2022-10-04T01:52:06.253Z,95.54
2022-10-04T01:54:36.606Z,95.54
2022-10-04T01:57:10.844Z,95.72
2022-10-04T01:59:46.452Z,95.42
2022-10-04T02:02:23.680Z,96.07
2022-10-04T02:04:54.673Z,96.28
2022-10-04T02:07:22.658Z,96.37
2022-10-04T02:09:56.441Z,97.24
2022-10-04T02:12:22.991Z,97.37
2022-10-04T02:14:52.505Z,97.24
2022-10-04T02:17:26.705Z,97.35
2022-10-04T02:19:54.069Z,97.54
2022-10-04T02:22:22.934Z,96.77
2022-10-04T02:24:50.354Z,96.92
2022-10-04T02:27:16.951Z,96.79
2022-10-04T02:29:43.555Z,97.03
2022-10-04T02:32:11.086Z,97.22
2022-10-04T02:34:38.581Z,97.18
2022-10-04T02:37:06.914Z,97.55
2022-10-04T02:39:53.171Z,97.13
2022-10-04T02:42:39.749Z,97.69
2022-10-04T02:45:36.462Z,98.53
2022-10-04T02:48:13.348Z,98.75
2022-10-04T02:50:46.705Z,99.66
2022-10-04T02:53:21.521Z,99.76
2022-10-04T02:55:49.243Z,99.90
2022-10-04T02:58:20.175Z,99.96
2022-10-04T03:00:50.206Z,99.55
2022-10-04T03:03:26.862Z,99.95
2022-10-04T03:06:07.171Z,100.00
2022-10-04T03:08:44.003Z,100.00
2022-10-04T03:11:12.871Z,100.00
2022-10-04T03:13:44.364Z,100.00
2022-10-04T03:16:10.823Z,100.00
2022-10-04T03:18:37.678Z,100.00
2022-10-04T03:21:07.832Z,100.00
2022-10-04T03:23:35.334Z,100.00
2022-10-04T03:26:32.739Z,100.00
2022-10-04T03:29:00.028Z,100.00
2022-10-04T03:31:28.071Z,100.00
2022-10-04T03:33:56.281Z,100.00
2022-10-04T03:36:25.463Z,100.00
2022-10-04T03:38:55.122Z,100.00
2022-10-04T03:41:23.607Z,100.00
2022-10-04T03:43:50.967Z,100.00
2022-10-04T03:46:19.666Z,100.00
2022-10-04T03:48:49.832Z,100.00
2022-10-04T03:51:22.141Z,100.00
2022-10-04T03:53:54.703Z,100.00
2022-10-04T03:56:31.717Z,100.00
2022-10-04T03:58:58.735Z,100.00
2022-10-04T04:01:51.154Z,100.00
2022-10-04T04:04:27.348Z,100.00
2022-10-04T04:07:02.820Z,100.00
2022-10-04T04:09:43.854Z,100.00
2022-10-04T04:12:22.070Z,100.00
2022-10-04T04:14:50.462Z,100.00
2022-10-04T04:17:25.831Z,100.00
2022-10-04T04:19:54.621Z,100.00
2022-10-04T04:22:21.487Z,100.00
2022-10-04T04:24:48.411Z,100.00
2022-10-04T04:27:17.710Z,100.00
2022-10-04T04:29:52.719Z,100.00
2022-10-04T04:32:32.021Z,100.00
2022-10-04T04:35:00.767Z,100.00
2022-10-04T04:37:27.196Z,100.00
2022-10-04T04:39:53.740Z,100.00
2022-10-04T04:42:35.637Z,100.00
2022-10-04T04:45:06.090Z,100.00
2022-10-04T04:47:46.414Z,100.00
2022-10-04T04:50:22.065Z,100.00
2022-10-04T04:53:16.223Z,100.00
2022-10-04T04:56:02.677Z,100.00
2022-10-04T04:58:38.684Z,100.00
2022-10-04T05:01:23.816Z,100.00
2022-10-04T05:04:08.222Z,100.00
2022-10-04T05:06:36.674Z,100.00
2022-10-04T05:09:04.998Z,100.00
2022-10-04T05:11:36.213Z,100.00
2022-10-04T05:14:11.019Z,100.00
2022-10-04T05:16:48.871Z,100.00
2022-10-04T05:19:35.469Z,100.00
2022-10-04T05:22:09.020Z,100.00
2022-10-04T05:24:40.261Z,100.00
2022-10-04T05:27:17.024Z,100.00
2022-10-04T05:30:19.895Z,100.00
2022-10-04T05:32:46.188Z,100.00
2022-10-04T05:35:20.685Z,100.00
2022-10-04T05:38:04.559Z,100.00
2022-10-04T05:40:56.662Z,100.00
2022-10-04T05:43:36.550Z,100.00
2022-10-04T05:46:24.862Z,100.00
2022-10-04T05:49:18.194Z,100.00
2022-10-04T05:51:58.161Z,100.00
2022-10-04T05:54:27.205Z,100.00
2022-10-04T05:57:18.251Z,100.00
2022-10-04T06:00:17.127Z,100.00
2022-10-04T06:03:13.438Z,100.00
2022-10-04T06:05:49.113Z,100.00
2022-10-04T06:08:27.014Z,100.00
2022-10-04T06:11:09.283Z,100.00
2022-10-04T06:14:00.325Z,100.00
2022-10-04T06:16:57.290Z,100.00
2022-10-04T06:20:01.028Z,100.00
2022-10-04T06:22:27.426Z,100.00
2022-10-04T06:25:00.204Z,100.00
2022-10-04T06:27:40.810Z,100.00
2022-10-04T06:30:13.491Z,100.00
2022-10-04T06:33:10.773Z,100.00
2022-10-04T06:35:59.710Z,100.00
2022-10-04T06:38:36.673Z,100.00
2022-10-04T06:41:16.159Z,100.00
2022-10-04T06:43:54.289Z,100.00
2022-10-04T06:47:05.680Z,100.00
2022-10-04T06:49:56.733Z,100.00
2022-10-04T06:52:46.368Z,100.00
2022-10-04T06:55:27.378Z,100.00
2022-10-04T06:58:24.754Z,100.00
2022-10-04T07:01:03.538Z,100.00
2022-10-04T07:03:56.194Z,100.00
2022-10-04T07:06:29.817Z,100.00
2022-10-04T07:08:59.449Z,99.25
2022-10-04T07:11:47.402Z,97.31
2022-10-04T07:14:19.652Z,93.68
2022-10-04T07:16:51.038Z,90.22
2022-10-04T07:19:28.257Z,89.20
2022-10-04T07:21:54.514Z,87.09
2022-10-04T07:24:32.027Z,87.51
2022-10-04T07:27:01.774Z,88.42
2022-10-04T07:29:37.739Z,87.89
2022-10-04T07:32:27.952Z,84.71
2022-10-04T07:35:06.502Z,83.61
2022-10-04T07:38:09.999Z,76.59
2022-10-04T07:41:05.188Z,71.33
2022-10-04T07:43:35.620Z,68.40
2022-10-04T07:46:13.255Z,70.83
2022-10-04T07:48:42.922Z,69.63
2022-10-04T07:51:26.382Z,66.92
2022-10-04T07:54:04.840Z,66.87
2022-10-04T07:56:37.417Z,66.68
2022-10-04T07:59:25.930Z,64.89
2022-10-04T08:02:14.076Z,67.75
2022-10-04T08:05:06.718Z,68.67
2022-10-04T08:07:54.779Z,69.07
2022-10-04T08:11:03.091Z,70.99
2022-10-04T08:13:51.859Z,72.94
2022-10-04T08:16:53.641Z,73.58
2022-10-04T08:19:51.075Z,74.03
2022-10-04T08:22:34.227Z,74.02
2022-10-04T08:25:37.399Z,75.06
2022-10-04T08:28:37.919Z,73.79
2022-10-04T08:31:26.836Z,71.02
2022-10-04T08:34:06.767Z,68.30
2022-10-04T08:36:47.659Z,67.96
2022-10-04T08:39:41.426Z,69.82
2022-10-04T08:42:27.414Z,68.15
2022-10-04T08:45:37.955Z,70.04
2022-10-04T08:48:13.234Z,71.87
2022-10-04T08:51:17.936Z,72.48
2022-10-04T08:54:03.062Z,72.88
2022-10-04T08:56:53.734Z,74.73
2022-10-04T08:59:38.830Z,70.92
2022-10-04T09:02:24.076Z,69.17
2022-10-04T09:05:13.710Z,69.72
2022-10-04T09:07:57.174Z,71.33
2022-10-04T09:10:37.223Z,70.55
2022-10-04T09:13:26.842Z,69.25
2022-10-04T09:15:55.227Z,69.81
2022-10-04T09:18:38.038Z,68.86
2022-10-04T09:21:12.175Z,70.69
2022-10-04T09:24:10.569Z,68.68
2022-10-04T09:26:45.872Z,68.58
2022-10-04T09:29:30.694Z,67.81
2022-10-04T09:32:30.171Z,63.77
2022-10-04T09:35:14.880Z,65.17
2022-10-04T09:37:44.212Z,64.10
2022-10-04T09:40:47.175Z,59.44
2022-10-04T09:43:48.885Z,61.44
2022-10-04T09:46:17.908Z,60.84
2022-10-04T09:49:17.061Z,60.83
2022-10-04T09:52:20.362Z,62.48
2022-10-04T09:55:11.490Z,59.33
2022-10-04T09:57:48.070Z,55.15
2022-10-04T10:00:23.039Z,59.78
2022-10-04T10:03:25.182Z,56.93
2022-10-04T10:06:10.230Z,58.46
2022-10-04T10:08:46.168Z,59.88
2022-10-04T10:11:21.453Z,58.15
2022-10-04T10:14:12.394Z,58.74
2022-10-04T10:16:58.897Z,58.69
2022-10-04T10:19:44.192Z,59.49
2022-10-04T10:22:22.478Z,56.85
2022-10-04T10:25:02.335Z,58.44
2022-10-04T10:27:47.230Z,56.82
2022-10-04T10:30:35.460Z,57.02
2022-10-04T10:33:30.271Z,57.03
2022-10-04T10:36:23.451Z,58.22
2022-10-04T10:39:31.620Z,60.82
2022-10-04T10:42:16.617Z,58.18
2022-10-04T10:45:14.033Z,61.09
2022-10-04T10:48:15.818Z,60.35
2022-10-04T10:51:08.013Z,60.90
2022-10-04T10:53:55.638Z,60.61
2022-10-04T10:56:46.909Z,59.68
2022-10-04T10:59:35.307Z,57.24
2022-10-04T11:02:04.487Z,56.50
2022-10-04T11:04:46.038Z,58.46
2022-10-04T11:07:35.800Z,58.19
2022-10-04T11:10:05.066Z,57.04
2022-10-04T11:12:44.834Z,56.93
2022-10-04T11:15:32.826Z,54.96
2022-10-04T11:18:17.613Z,57.90
2022-10-04T11:21:26.356Z,55.72
2022-10-04T11:23:55.551Z,57.34
2022-10-04T11:26:36.926Z,55.05
2022-10-04T11:29:23.582Z,56.94
2022-10-04T11:32:02.148Z,57.15
2022-10-04T11:34:59.633Z,54.72
2022-10-04T11:37:57.513Z,53.95
2022-10-04T11:40:42.361Z,57.22
2022-10-04T11:43:29.387Z,57.09
2022-10-04T11:46:10.835Z,55.60
2022-10-04T11:48:52.324Z,55.91
2022-10-04T11:51:40.142Z,54.87
2022-10-04T11:54:06.441Z,56.39
2022-10-04T11:57:09.987Z,56.50
2022-10-04T11:59:55.913Z,52.96
2022-10-04T12:02:59.543Z,52.72
2022-10-04T12:05:48.132Z,56.64
2022-10-04T12:08:29.034Z,56.28
2022-10-04T12:11:17.196Z,55.52
2022-10-04T12:14:14.155Z,53.45
2022-10-04T12:17:11.510Z,53.76
2022-10-04T12:20:19.090Z,55.84
2022-10-04T12:23:05.694Z,56.52
2022-10-04T12:25:52.117Z,55.90
2022-10-04T12:28:48.907Z,55.89
2022-10-04T12:31:19.305Z,54.05
2022-10-04T12:33:51.526Z,53.03
2022-10-04T12:36:40.859Z,55.19
2022-10-04T12:39:19.425Z,53.98
2022-10-04T12:42:07.739Z,55.53
2022-10-04T12:44:40.875Z,57.42
2022-10-04T12:47:44.926Z,56.79
2022-10-04T12:50:24.355Z,55.09
2022-10-04T12:53:00.653Z,55.32
2022-10-04T12:55:55.003Z,55.74
2022-10-04T12:58:47.433Z,54.87
2022-10-04T13:01:29.147Z,53.07
2022-10-04T13:04:04.543Z,53.46
2022-10-04T13:06:51.459Z,53.74
2022-10-04T13:10:12.086Z,52.42
2022-10-04T13:13:15.461Z,52.68
2022-10-04T13:18:45.225Z,50.65
2022-10-04T13:21:20.852Z,53.17
2022-10-04T13:24:22.026Z,52.47
2022-10-04T13:27:02.626Z,53.68
2022-10-04T13:29:41.199Z,53.89
2022-10-04T13:32:25.985Z,53.11
2022-10-04T13:35:05.277Z,52.37
2022-10-04T13:37:42.135Z,53.56
2022-10-04T13:40:28.522Z,54.72
2022-10-04T13:43:19.827Z,56.60
2022-10-04T13:45:58.503Z,52.91
2022-10-04T13:48:46.674Z,53.86
2022-10-04T13:51:24.930Z,55.50
2022-10-04T13:54:12.581Z,55.46
2022-10-04T13:56:58.506Z,55.38
2022-10-04T13:59:35.433Z,55.98
2022-10-04T14:02:23.465Z,55.76
2022-10-04T14:05:10.622Z,56.32
2022-10-04T14:08:05.416Z,54.68
2022-10-04T14:10:43.364Z,54.39
2022-10-04T14:13:34.606Z,54.94
2022-10-04T14:16:38.727Z,56.23
2022-10-04T14:19:40.240Z,57.14
2022-10-04T14:22:44.027Z,55.26
2022-10-04T14:25:41.651Z,54.50
2022-10-04T14:28:26.601Z,55.57
2022-10-04T14:31:15.724Z,55.56
2022-10-04T14:34:21.597Z,57.10
2022-10-04T14:37:09.746Z,57.94
2022-10-04T14:40:05.363Z,59.63
2022-10-04T14:42:56.659Z,58.85
2022-10-04T14:45:32.152Z,59.14
2022-10-04T14:48:24.773Z,58.38
2022-10-04T14:51:14.980Z,58.88
2022-10-04T14:53:49.633Z,59.34
2022-10-04T14:56:18.908Z,58.79
2022-10-04T14:59:00.921Z,58.47
2022-10-04T15:01:28.420Z,59.28
2022-10-04T15:04:22.278Z,59.59
2022-10-04T15:06:55.738Z,60.90
2022-10-04T15:09:32.221Z,60.06
2022-10-04T15:12:36.489Z,60.44
2022-10-04T15:15:10.184Z,61.29
2022-10-04T15:17:43.256Z,61.61
2022-10-04T15:20:24.863Z,62.60
2022-10-04T15:23:07.087Z,62.68
2022-10-04T15:25:38.197Z,62.84
2022-10-04T15:28:13.110Z,62.85
2022-10-04T15:31:00.553Z,63.77
2022-10-04T15:34:06.785Z,62.67
2022-10-04T15:37:14.587Z,63.97
2022-10-04T15:39:58.319Z,64.53
2022-10-04T15:42:29.163Z,64.48
2022-10-04T15:45:46.273Z,65.45
2022-10-04T15:48:27.989Z,65.52
2022-10-04T15:51:09.181Z,65.35
2022-10-04T15:54:05.629Z,66.47
2022-10-04T15:56:41.098Z,65.96
2022-10-04T15:59:25.865Z,65.74
2022-10-04T16:02:07.214Z,65.77
2022-10-04T16:05:06.600Z,65.56
2022-10-04T16:08:26.770Z,65.69
2022-10-04T16:10:59.482Z,65.95
2022-10-04T16:13:38.027Z,65.96
2022-10-04T16:16:16.844Z,66.29
2022-10-04T16:19:08.159Z,66.58
2022-10-04T16:21:49.658Z,67.31
2022-10-04T16:24:21.728Z,67.34
2022-10-04T16:26:48.460Z,67.79
2022-10-04T16:29:42.506Z,68.00
2022-10-04T16:32:17.633Z,68.28
2022-10-04T16:34:43.914Z,68.13
2022-10-04T16:37:10.158Z,68.39
2022-10-04T16:39:49.151Z,68.59
2022-10-04T16:42:17.598Z,69.11
2022-10-04T16:44:55.066Z,69.48
2022-10-04T16:47:31.242Z,69.94
2022-10-04T16:50:00.775Z,70.25
2022-10-04T16:52:46.666Z,70.94
2022-10-04T16:55:34.620Z,70.98
2022-10-04T16:58:26.061Z,71.60
2022-10-04T17:01:23.401Z,71.77
2022-10-04T17:03:55.874Z,71.93
2022-10-04T17:06:47.623Z,72.70
2022-10-04T17:09:23.362Z,72.63
2022-10-04T17:12:02.233Z,73.14
2022-10-04T17:15:07.939Z,74.08
2022-10-04T17:17:56.252Z,73.79
2022-10-04T17:20:25.441Z,74.11
2022-10-04T17:23:07.325Z,75.12
2022-10-04T17:25:47.365Z,75.46
2022-10-04T17:28:23.554Z,77.23
2022-10-04T17:30:56.900Z,77.16
2022-10-04T17:33:40.322Z,77.45
2022-10-04T17:36:43.148Z,79.32
2022-10-04T17:39:41.340Z,80.80
2022-10-04T17:42:37.870Z,80.63
2022-10-04T17:45:17.317Z,80.25
2022-10-04T17:48:05.580Z,81.09
2022-10-04T17:51:14.153Z,80.64
2022-10-04T17:53:45.089Z,79.70
2022-10-04T17:56:12.978Z,79.23
2022-10-04T17:58:50.774Z,79.94
2022-10-04T18:01:27.055Z,79.86
2022-10-04T18:04:06.153Z,80.57
2022-10-04T18:06:49.124Z,80.32
2022-10-04T18:09:50.518Z,79.90
2022-10-04T18:12:33.857Z,80.67
2022-10-04T18:15:20.463Z,80.60
2022-10-04T18:17:50.295Z,80.05
2022-10-04T18:20:28.000Z,80.59
2022-10-04T18:23:14.178Z,80.40
2022-10-04T18:25:41.793Z,80.25
2022-10-04T18:28:08.129Z,80.01
2022-10-04T18:30:50.541Z,81.23
2022-10-04T18:33:25.841Z,80.65
2022-10-04T18:36:03.183Z,80.57
2022-10-04T18:38:31.519Z,80.61
2022-10-04T18:41:02.860Z,81.17
2022-10-04T18:43:30.952Z,80.64
2022-10-04T18:46:01.235Z,80.62
2022-10-04T18:48:59.180Z,81.38
2022-10-04T18:51:50.985Z,81.16
2022-10-04T18:54:32.773Z,80.49
2022-10-04T18:57:05.311Z,80.61
2022-10-04T18:59:57.949Z,80.41
2022-10-04T19:02:55.697Z,81.10
2022-10-04T19:05:49.082Z,80.58
2022-10-04T19:08:48.686Z,81.03
2022-10-04T19:11:24.134Z,80.50
2022-10-04T19:14:08.753Z,80.82
2022-10-04T19:16:44.288Z,80.53
2022-10-04T19:19:32.115Z,80.99
2022-10-04T19:22:06.518Z,80.37
2022-10-04T19:25:01.017Z,81.29
2022-10-04T19:27:35.711Z,80.70
2022-10-04T19:30:04.151Z,80.78
2022-10-04T19:32:47.176Z,81.33
2022-10-04T19:35:49.405Z,82.07
2022-10-04T19:38:40.431Z,81.87
2022-10-04T19:41:14.609Z,81.74
2022-10-04T19:44:25.400Z,82.31
2022-10-04T19:46:59.712Z,82.53
2022-10-04T19:49:52.499Z,83.49
2022-10-04T19:52:23.742Z,82.21
2022-10-04T19:54:57.802Z,82.38
2022-10-04T19:57:36.981Z,81.99
2022-10-04T20:00:13.773Z,81.61
2022-10-04T20:02:47.416Z,81.81
2022-10-04T20:05:19.843Z,81.73
2022-10-04T20:07:51.222Z,81.28
2022-10-04T20:10:36.914Z,81.97
2022-10-04T20:13:12.849Z,81.54
2022-10-04T20:15:39.097Z,81.70
2022-10-04T20:18:33.249Z,81.87
2022-10-04T20:20:59.535Z,82.09
2022-10-04T20:23:37.938Z,82.03
2022-10-04T20:26:05.760Z,81.82
2022-10-04T20:28:32.123Z,83.07
2022-10-04T20:31:02.193Z,82.94
2022-10-04T20:33:34.495Z,82.55
2022-10-04T20:36:05.996Z,82.35
2022-10-04T20:38:51.188Z,82.78
2022-10-04T20:41:29.735Z,82.80
2022-10-04T20:43:58.797Z,82.28
2022-10-04T20:46:28.912Z,81.98
2022-10-04T20:48:55.472Z,81.61
2022-10-04T20:51:22.189Z,82.05
2022-10-04T20:53:49.120Z,81.58
2022-10-04T20:56:46.586Z,81.11
2022-10-04T20:59:16.354Z,80.79
2022-10-04T21:01:42.742Z,80.52
2022-10-04T21:04:23.888Z,80.07
2022-10-04T21:06:54.748Z,80.07
2022-10-04T21:09:21.383Z,80.25
2022-10-04T21:11:51.234Z,80.35
2022-10-04T21:14:28.360Z,80.46
2022-10-04T21:17:02.677Z,80.40
2022-10-04T21:19:33.564Z,80.12
2022-10-04T21:22:04.563Z,80.09
2022-10-04T21:24:42.837Z,80.22
2022-10-04T21:27:11.751Z,80.50
2022-10-04T21:29:39.430Z,80.08
2022-10-04T21:32:06.241Z,80.00
2022-10-04T21:34:52.393Z,79.96
2022-10-04T21:37:19.332Z,80.10
2022-10-04T21:39:45.875Z,79.93
2022-10-04T21:42:12.321Z,79.87
2022-10-04T21:44:38.644Z,79.88
2022-10-04T21:47:05.039Z,79.80
2022-10-04T21:49:31.343Z,79.73
2022-10-04T21:51:57.646Z,79.99
2022-10-04T21:54:24.030Z,80.10
2022-10-04T21:56:50.323Z,79.82
2022-10-04T21:59:16.671Z,80.00
2022-10-04T22:01:43.019Z,80.07
2022-10-04T22:04:09.352Z,80.06
2022-10-04T22:06:35.668Z,80.19
2022-10-04T22:09:01.962Z,80.34
2022-10-04T22:11:28.299Z,80.39
2022-10-04T22:13:54.619Z,80.52
2022-10-04T22:16:21.002Z,80.41
2022-10-04T22:18:47.365Z,80.47
2022-10-04T22:21:13.842Z,80.67
2022-10-04T22:23:42.372Z,80.85
2022-10-04T22:26:18.471Z,81.43
2022-10-04T22:28:50.694Z,81.16
2022-10-04T22:31:20.545Z,81.15
2022-10-04T22:33:49.740Z,81.52
2022-10-04T22:36:15.998Z,81.72
2022-10-04T22:38:57.404Z,81.55
2022-10-04T22:41:27.585Z,82.17
2022-10-04T22:43:57.258Z,82.06
2022-10-04T22:46:28.202Z,81.83
2022-10-04T22:48:54.489Z,81.54
2022-10-04T22:51:20.795Z,81.33
2022-10-04T22:53:47.779Z,81.07
2022-10-04T22:56:14.913Z,81.40
2022-10-04T22:58:42.071Z,81.68
2022-10-04T23:01:18.609Z,81.21
2022-10-04T23:03:46.816Z,80.86
2022-10-04T23:06:13.413Z,80.75
2022-10-04T23:08:43.227Z,81.09
2022-10-04T23:11:11.118Z,80.93
2022-10-04T23:13:38.273Z,80.97
2022-10-04T23:16:19.245Z,81.36
2022-10-04T23:18:45.667Z,81.12
2022-10-04T23:21:26.019Z,81.36
2022-10-04T23:23:53.514Z,81.56
2022-10-04T23:26:27.285Z,81.33
2022-10-04T23:28:53.623Z,81.57
2022-10-04T23:31:24.096Z,81.19
2022-10-04T23:33:51.828Z,81.37
2022-10-04T23:36:18.766Z,81.50
2022-10-04T23:38:51.856Z,82.01
2022-10-04T23:41:19.512Z,81.80
2022-10-04T23:43:48.790Z,82.45
2022-10-04T23:46:19.347Z,82.35
2022-10-04T23:48:46.935Z,82.28
2022-10-04T23:51:18.290Z,82.26
2022-10-04T23:53:48.041Z,82.32
2022-10-04T23:56:21.863Z,82.50
2022-10-04T23:58:49.829Z,82.20
